sensor_id;sensor_type;location;lat;lon;timestamp;pressure;altitude;pressure_sealevel;temperature;humidity
48800;BME280;34611;47.964;7.982;2023-12-14T00:01:20;95766.44;;;11.48;62.88
48800;BME280;34611;47.964;7.982;2023-12-14T00:08:21;95773.41;;;11.47;62.70
48800;BME280;34611;47.964;7.982;2023-12-14T00:15:21;95785.47;;;11.48;62.76
48800;BME280;34611;47.964;7.982;2023-12-14T00:22:21;95794.06;;;11.49;62.93
48800;BME280;34611;47.964;7.982;2023-12-14T00:29:21;95800.28;;;11.48;62.99
48800;BME280;34611;47.964;7.982;2023-12-14T00:36:22;95804.47;;;11.49;62.84
48800;BME280;34611;47.964;7.982;2023-12-14T00:43:22;95818.50;;;11.48;62.81
48800;BME280;34611;47.964;7.982;2023-12-14T00:50:22;95827.91;;;11.49;62.98
48800;BME280;34611;47.964;7.982;2023-12-14T00:57:23;95845.97;;;11.50;62.80
48800;BME280;34611;47.964;7.982;2023-12-14T01:04:23;95847.91;;;11.48;62.86
48800;BME280;34611;47.964;7.982;2023-12-14T01:11:23;95853.94;;;11.49;62.89
48800;BME280;34611;47.964;7.982;2023-12-14T01:18:23;95872.16;;;11.49;62.88
48800;BME280;34611;47.964;7.982;2023-12-14T01:25:24;95878.16;;;11.49;62.79
48800;BME280;34611;47.964;7.982;2023-12-14T01:32:25;95888.75;;;11.48;62.83
48800;BME280;34611;47.964;7.982;2023-12-14T01:39:25;95910.19;;;11.50;63.01
48800;BME280;34611;47.964;7.982;2023-12-14T01:46:25;95909.41;;;11.49;62.94
48800;BME280;34611;47.964;7.982;2023-12-14T01:53:25;95932.00;;;11.49;63.00
48800;BME280;34611;47.964;7.982;2023-12-14T02:07:29;95942.41;;;11.49;62.88
48800;BME280;34611;47.964;7.982;2023-12-14T02:14:29;95955.44;;;11.49;63.16
48800;BME280;34611;47.964;7.982;2023-12-14T02:21:29;95957.06;;;11.50;63.08
48800;BME280;34611;47.964;7.982;2023-12-14T02:28:30;95960.63;;;11.49;63.19
48800;BME280;34611;47.964;7.982;2023-12-14T02:35:30;95970.25;;;11.48;62.97
48800;BME280;34611;47.964;7.982;2023-12-14T02:42:30;95977.88;;;11.50;62.92
48800;BME280;34611;47.964;7.982;2023-12-14T02:49:30;95990.88;;;11.50;62.88
48800;BME280;34611;47.964;7.982;2023-12-14T02:56:31;96008.28;;;11.49;63.15
48800;BME280;34611;47.964;7.982;2023-12-14T03:03:31;96004.88;;;11.49;63.08
48800;BME280;34611;47.964;7.982;2023-12-14T03:10:31;96013.69;;;11.48;63.16
48800;BME280;34611;47.964;7.982;2023-12-14T03:17:31;96034.50;;;11.48;63.08
48800;BME280;34611;47.964;7.982;2023-12-14T03:24:32;96042.13;;;11.49;63.23
48800;BME280;34611;47.964;7.982;2023-12-14T03:31:32;96040.50;;;11.48;62.91
48800;BME280;34611;47.964;7.982;2023-12-14T03:38:32;96052.53;;;11.49;63.22
48800;BME280;34611;47.964;7.982;2023-12-14T03:45:33;96058.72;;;11.48;63.14
48800;BME280;34611;47.964;7.982;2023-12-14T03:52:33;96075.16;;;11.49;62.98
48800;BME280;34611;47.964;7.982;2023-12-14T03:59:33;96086.38;;;11.49;63.12
48800;BME280;34611;47.964;7.982;2023-12-14T04:06:34;96097.75;;;11.48;63.07
48800;BME280;34611;47.964;7.982;2023-12-14T04:13:34;96109.97;;;11.48;63.35
48800;BME280;34611;47.964;7.982;2023-12-14T04:20:36;96115.97;;;11.48;63.08
48800;BME280;34611;47.964;7.982;2023-12-14T04:27:36;96128.81;;;11.50;63.17
48800;BME280;34611;47.964;7.982;2023-12-14T04:34:36;96139.41;;;11.48;63.18
48800;BME280;34611;47.964;7.982;2023-12-14T04:41:36;96143.81;;;11.48;63.34
48800;BME280;34611;47.964;7.982;2023-12-14T04:48:37;96149.81;;;11.48;63.24
48800;BME280;34611;47.964;7.982;2023-12-14T04:55:37;96163.66;;;11.49;63.03
48800;BME280;34611;47.964;7.982;2023-12-14T05:02:37;96171.59;;;11.47;63.28
48800;BME280;34611;47.964;7.982;2023-12-14T05:09:38;96189.66;;;11.49;63.23
48800;BME280;34611;47.964;7.982;2023-12-14T05:16:38;96204.47;;;11.48;63.04
48800;BME280;34611;47.964;7.982;2023-12-14T05:23:39;96224.31;;;11.49;63.13
48800;BME280;34611;47.964;7.982;2023-12-14T05:30:39;96232.28;;;11.48;63.21
48800;BME280;34611;47.964;7.982;2023-12-14T05:37:39;96244.31;;;11.49;63.35
48800;BME280;34611;47.964;7.982;2023-12-14T05:44:41;96242.72;;;11.48;63.45
48800;BME280;34611;47.964;7.982;2023-12-14T05:51:41;96259.81;;;11.50;63.73
48800;BME280;34611;47.964;7.982;2023-12-14T05:58:41;96280.75;;;11.49;63.47
48800;BME280;34611;47.964;7.982;2023-12-14T06:05:41;96287.75;;;11.48;63.25
48800;BME280;34611;47.964;7.982;2023-12-14T06:12:42;96292.00;;;11.49;63.35
48800;BME280;34611;47.964;7.982;2023-12-14T06:19:42;96317.22;;;11.49;63.25
48800;BME280;34611;47.964;7.982;2023-12-14T06:26:43;96326.00;;;11.48;63.29
48800;BME280;34611;47.964;7.982;2023-12-14T06:33:43;96347.63;;;11.48;63.26
48800;BME280;34611;47.964;7.982;2023-12-14T06:40:43;96362.44;;;11.48;63.30
48800;BME280;34611;47.964;7.982;2023-12-14T06:47:44;96367.63;;;11.48;63.17
48800;BME280;34611;47.964;7.982;2023-12-14T06:54:46;96378.03;;;11.48;63.07
48800;BME280;34611;47.964;7.982;2023-12-14T07:01:46;96385.84;;;11.48;63.23
48800;BME280;34611;47.964;7.982;2023-12-14T07:08:47;96403.22;;;11.47;63.21
48800;BME280;34611;47.964;7.982;2023-12-14T07:15:47;96414.50;;;11.48;63.10
48800;BME280;34611;47.964;7.982;2023-12-14T07:22:47;96426.66;;;11.47;63.21
48800;BME280;34611;47.964;7.982;2023-12-14T07:29:48;96440.50;;;11.48;63.10
48800;BME280;34611;47.964;7.982;2023-12-14T07:36:48;96452.69;;;11.47;63.01
48800;BME280;34611;47.964;7.982;2023-12-14T07:43:48;96454.47;;;11.47;63.12
48800;BME280;34611;47.964;7.982;2023-12-14T07:50:48;96475.31;;;11.47;63.13
48800;BME280;34611;47.964;7.982;2023-12-14T07:57:49;96484.09;;;11.46;62.92
48800;BME280;34611;47.964;7.982;2023-12-14T08:04:49;96495.31;;;11.46;63.04
48800;BME280;34611;47.964;7.982;2023-12-14T08:11:49;96510.94;;;11.46;62.91
48800;BME280;34611;47.964;7.982;2023-12-14T08:18:52;96524.75;;;11.47;62.85
48800;BME280;34611;47.964;7.982;2023-12-14T08:25:52;96547.38;;;11.46;62.90
48800;BME280;34611;47.964;7.982;2023-12-14T08:32:52;96554.38;;;11.46;63.09
48800;BME280;34611;47.964;7.982;2023-12-14T08:39:53;96569.00;;;11.47;63.01
48800;BME280;34611;47.964;7.982;2023-12-14T08:46:54;96580.38;;;11.46;62.92
48800;BME280;34611;47.964;7.982;2023-12-14T08:53:54;96594.22;;;11.46;63.09
48800;BME280;34611;47.964;7.982;2023-12-14T09:00:55;96618.59;;;11.45;63.09
48800;BME280;34611;47.964;7.982;2023-12-14T09:07:55;96636.81;;;11.45;62.82
48800;BME280;34611;47.964;7.982;2023-12-14T09:14:56;96651.63;;;11.45;62.97
48800;BME280;34611;47.964;7.982;2023-12-14T09:21:56;96655.88;;;11.46;63.00
48800;BME280;34611;47.964;7.982;2023-12-14T09:28:57;96666.28;;;11.46;63.09
48800;BME280;34611;47.964;7.982;2023-12-14T09:35:57;96674.09;;;11.46;62.93
48800;BME280;34611;47.964;7.982;2023-12-14T09:42:58;96670.66;;;11.45;62.99
48800;BME280;34611;47.964;7.982;2023-12-14T09:49:58;96688.88;;;11.45;63.07
48800;BME280;34611;47.964;7.982;2023-12-14T09:56:59;96700.25;;;11.44;62.96
48800;BME280;34611;47.964;7.982;2023-12-14T10:04:09;96704.66;;;11.44;63.11
48800;BME280;34611;47.964;7.982;2023-12-14T10:11:14;96719.16;;;11.46;62.86
48800;BME280;34611;47.964;7.982;2023-12-14T10:18:22;96732.19;;;11.46;62.81
48800;BME280;34611;47.964;7.982;2023-12-14T10:25:26;96740.94;;;11.45;63.02
48800;BME280;34611;47.964;7.982;2023-12-14T10:32:27;96744.38;;;11.46;63.02
48800;BME280;34611;47.964;7.982;2023-12-14T10:39:33;96753.94;;;11.45;62.97
48800;BME280;34611;47.964;7.982;2023-12-14T10:46:47;96760.00;;;11.46;62.85
48800;BME280;34611;47.964;7.982;2023-12-14T10:53:48;96766.13;;;11.45;63.07
48800;BME280;34611;47.964;7.982;2023-12-14T11:01:01;96777.38;;;11.45;63.07
48800;BME280;34611;47.964;7.982;2023-12-14T11:08:05;96792.03;;;11.46;62.91
48800;BME280;34611;47.964;7.982;2023-12-14T11:15:12;96798.19;;;11.45;62.93
48800;BME280;34611;47.964;7.982;2023-12-14T11:22:13;96800.78;;;11.45;62.82
48800;BME280;34611;47.964;7.982;2023-12-14T11:29:15;96813.81;;;11.45;63.00
48800;BME280;34611;47.964;7.982;2023-12-14T11:36:15;96817.25;;;11.46;62.83
48800;BME280;34611;47.964;7.982;2023-12-14T11:43:16;96825.19;;;11.44;63.09
48800;BME280;34611;47.964;7.982;2023-12-14T11:50:16;96840.69;;;11.46;62.80
48800;BME280;34611;47.964;7.982;2023-12-14T11:57:17;96847.66;;;11.45;63.00
48800;BME280;34611;47.964;7.982;2023-12-14T12:04:17;96860.66;;;11.45;63.02
48800;BME280;34611;47.964;7.982;2023-12-14T12:11:18;96873.69;;;11.45;63.02
48800;BME280;34611;47.964;7.982;2023-12-14T12:18:18;96878.06;;;11.45;62.96
48800;BME280;34611;47.964;7.982;2023-12-14T12:25:19;96881.34;;;11.47;62.94
48800;BME280;34611;47.964;7.982;2023-12-14T12:32:19;96884.94;;;11.46;63.07
48800;BME280;34611;47.964;7.982;2023-12-14T12:39:19;96888.22;;;11.48;63.04
48800;BME280;34611;47.964;7.982;2023-12-14T12:46:20;96890.13;;;11.46;62.97
48800;BME280;34611;47.964;7.982;2023-12-14T12:53:20;96896.16;;;11.46;63.10
48800;BME280;34611;47.964;7.982;2023-12-14T13:00:20;96896.16;;;11.46;62.98
48800;BME280;34611;47.964;7.982;2023-12-14T13:07:21;96908.34;;;11.46;62.88
48800;BME280;34611;47.964;7.982;2023-12-14T13:14:21;96910.97;;;11.46;63.02
48800;BME280;34611;47.964;7.982;2023-12-14T13:21:21;96915.31;;;11.45;63.24
48800;BME280;34611;47.964;7.982;2023-12-14T13:28:22;96920.53;;;11.45;62.93
48800;BME280;34611;47.964;7.982;2023-12-14T13:35:23;96930.94;;;11.45;63.04
48800;BME280;34611;47.964;7.982;2023-12-14T13:42:24;96937.00;;;11.46;62.73
48800;BME280;34611;47.964;7.982;2023-12-14T13:49:25;96946.56;;;11.45;63.12
48800;BME280;34611;47.964;7.982;2023-12-14T13:56:25;96943.00;;;11.46;63.06
48800;BME280;34611;47.964;7.982;2023-12-14T14:03:25;96956.03;;;11.46;63.08
48800;BME280;34611;47.964;7.982;2023-12-14T14:10:27;96978.66;;;11.46;63.09
48800;BME280;34611;47.964;7.982;2023-12-14T14:17:27;96996.72;;;11.47;62.99
48800;BME280;34611;47.964;7.982;2023-12-14T14:24:28;97009.88;;;11.46;62.92
48800;BME280;34611;47.964;7.982;2023-12-14T14:31:28;97019.31;;;11.47;63.13
48800;BME280;34611;47.964;7.982;2023-12-14T14:38:32;97032.34;;;11.47;63.15
48800;BME280;34611;47.964;7.982;2023-12-14T14:45:32;97044.41;;;11.48;63.03
48800;BME280;34611;47.964;7.982;2023-12-14T14:52:33;97058.38;;;11.47;63.10
48800;BME280;34611;47.964;7.982;2023-12-14T14:59:33;97070.56;;;11.46;63.20
48800;BME280;34611;47.964;7.982;2023-12-14T15:06:33;97086.06;;;11.48;63.15
48800;BME280;34611;47.964;7.982;2023-12-14T15:13:34;97094.81;;;11.47;63.12
48800;BME280;34611;47.964;7.982;2023-12-14T15:20:35;97101.00;;;11.46;63.10
48800;BME280;34611;47.964;7.982;2023-12-14T15:27:36;97108.66;;;11.47;62.94
48800;BME280;34611;47.964;7.982;2023-12-14T15:34:36;97140.84;;;11.46;63.06
48800;BME280;34611;47.964;7.982;2023-12-14T15:41:37;97167.72;;;11.47;63.18
48800;BME280;34611;47.964;7.982;2023-12-14T15:48:37;97188.53;;;11.47;63.04
48800;BME280;34611;47.964;7.982;2023-12-14T15:55:37;97197.31;;;11.46;63.20
48800;BME280;34611;47.964;7.982;2023-12-14T16:02:37;97197.31;;;11.46;63.14
48800;BME280;34611;47.964;7.982;2023-12-14T16:09:38;97208.53;;;11.46;62.98
48800;BME280;34611;47.964;7.982;2023-12-14T16:16:38;97221.56;;;11.46;63.07
48800;BME280;34611;47.964;7.982;2023-12-14T16:23:39;97239.78;;;11.46;62.92
48800;BME280;34611;47.964;7.982;2023-12-14T16:30:39;97239.91;;;11.45;62.99
48800;BME280;34611;47.964;7.982;2023-12-14T16:37:39;97248.53;;;11.45;62.93
48800;BME280;34611;47.964;7.982;2023-12-14T16:44:40;97261.53;;;11.45;63.11
48800;BME280;34611;47.964;7.982;2023-12-14T16:51:41;97262.38;;;11.46;63.21
48800;BME280;34611;47.964;7.982;2023-12-14T16:58:42;97274.56;;;11.45;63.11
48800;BME280;34611;47.964;7.982;2023-12-14T17:05:42;97284.16;;;11.45;62.96
48800;BME280;34611;47.964;7.982;2023-12-14T17:12:42;97286.84;;;11.54;63.40
48800;BME280;34611;47.964;7.982;2023-12-14T17:19:42;97304.22;;;11.54;63.36
48800;BME280;34611;47.964;7.982;2023-12-14T17:26:43;97318.22;;;11.53;63.05
48800;BME280;34611;47.964;7.982;2023-12-14T17:33:43;97337.13;;;11.55;63.25
48800;BME280;34611;47.964;7.982;2023-12-14T17:40:43;97343.16;;;11.55;63.11
48800;BME280;34611;47.964;7.982;2023-12-14T17:47:44;97355.38;;;11.55;62.98
48800;BME280;34611;47.964;7.982;2023-12-14T17:54:44;97363.19;;;11.55;63.14
48800;BME280;34611;47.964;7.982;2023-12-14T18:01:44;97363.19;;;11.55;63.05
48800;BME280;34611;47.964;7.982;2023-12-14T18:08:45;97377.84;;;11.56;63.22
48800;BME280;34611;47.964;7.982;2023-12-14T18:15:46;97378.81;;;11.55;62.96
48800;BME280;34611;47.964;7.982;2023-12-14T18:22:46;97394.06;;;11.60;62.94
48800;BME280;34611;47.964;7.982;2023-12-14T18:29:46;97404.56;;;11.58;63.40
48800;BME280;34611;47.964;7.982;2023-12-14T18:36:47;97408.97;;;11.58;63.34
48800;BME280;34611;47.964;7.982;2023-12-14T18:43:47;97417.59;;;11.58;63.41
48800;BME280;34611;47.964;7.982;2023-12-14T18:50:47;97428.97;;;11.57;63.38
48800;BME280;34611;47.964;7.982;2023-12-14T18:57:47;97441.88;;;11.59;63.35
48800;BME280;34611;47.964;7.982;2023-12-14T19:04:48;97452.31;;;11.59;63.51
48800;BME280;34611;47.964;7.982;2023-12-14T19:11:49;97473.13;;;11.59;63.54
48800;BME280;34611;47.964;7.982;2023-12-14T19:18:49;97480.09;;;11.58;63.53
48800;BME280;34611;47.964;7.982;2023-12-14T19:25:50;97488.59;;;11.83;62.74
48800;BME280;34611;47.964;7.982;2023-12-14T19:32:50;97515.38;;;11.62;64.05
48800;BME280;34611;47.964;7.982;2023-12-14T19:39:52;97541.66;;;11.59;64.03
48800;BME280;34611;47.964;7.982;2023-12-14T19:46:52;97539.97;;;11.58;63.96
48800;BME280;34611;47.964;7.982;2023-12-14T19:53:52;97559.06;;;11.70;63.45
48800;BME280;34611;47.964;7.982;2023-12-14T20:00:53;97565.09;;;11.59;64.10
48800;BME280;34611;47.964;7.982;2023-12-14T20:07:53;97576.44;;;11.58;64.05
48800;BME280;34611;47.964;7.982;2023-12-14T20:14:53;97585.94;;;11.59;63.93
48800;BME280;34611;47.964;7.982;2023-12-14T20:21:53;97592.19;;;11.57;64.10
48800;BME280;34611;47.964;7.982;2023-12-14T20:28:54;97613.75;;;11.59;63.97
48800;BME280;34611;47.964;7.982;2023-12-14T20:35:54;97612.44;;;11.64;64.12
48800;BME280;34611;47.964;7.982;2023-12-14T20:42:55;97625.91;;;11.58;64.12
48800;BME280;34611;47.964;7.982;2023-12-14T20:49:55;97632.91;;;11.58;63.94
48800;BME280;34611;47.964;7.982;2023-12-14T20:56:55;97651.97;;;11.58;63.98
48800;BME280;34611;47.964;7.982;2023-12-14T21:03:56;97663.34;;;11.57;63.97
48800;BME280;34611;47.964;7.982;2023-12-14T21:10:56;97678.97;;;11.57;63.89
48800;BME280;34611;47.964;7.982;2023-12-14T21:17:56;97688.53;;;11.57;63.70
48800;BME280;34611;47.964;7.982;2023-12-14T21:24:57;97711.03;;;11.58;63.81
48800;BME280;34611;47.964;7.982;2023-12-14T21:32:01;97721.53;;;11.56;63.77
48800;BME280;34611;47.964;7.982;2023-12-14T21:39:01;97731.97;;;11.56;63.72
48800;BME280;34611;47.964;7.982;2023-12-14T21:46:02;97751.88;;;11.57;63.85
48800;BME280;34611;47.964;7.982;2023-12-14T21:53:02;97763.22;;;11.56;63.63
48800;BME280;34611;47.964;7.982;2023-12-14T22:00:03;97770.09;;;11.57;63.61
48800;BME280;34611;47.964;7.982;2023-12-14T22:07:04;97781.44;;;11.56;63.60
48800;BME280;34611;47.964;7.982;2023-12-14T22:14:04;97792.72;;;11.57;63.65
48800;BME280;34611;47.964;7.982;2023-12-14T22:21:05;97807.47;;;11.56;63.68
48800;BME280;34611;47.964;7.982;2023-12-14T22:28:05;97810.09;;;11.56;63.55
48800;BME280;34611;47.964;7.982;2023-12-14T22:35:06;97823.09;;;11.56;63.51
48800;BME280;34611;47.964;7.982;2023-12-14T22:42:07;97825.72;;;11.56;63.75
48800;BME280;34611;47.964;7.982;2023-12-14T22:49:07;97832.69;;;11.55;63.83
48800;BME280;34611;47.964;7.982;2023-12-14T22:56:08;97844.78;;;11.57;63.68
48800;BME280;34611;47.964;7.982;2023-12-14T23:03:09;97854.34;;;11.56;63.65
48800;BME280;34611;47.964;7.982;2023-12-14T23:10:10;97870.94;;;11.55;63.46
48800;BME280;34611;47.964;7.982;2023-12-14T23:17:10;97871.75;;;11.55;63.60
48800;BME280;34611;47.964;7.982;2023-12-14T23:24:10;97887.38;;;11.55;63.71
48800;BME280;34611;47.964;7.982;2023-12-14T23:31:11;97892.50;;;11.57;63.68
48800;BME280;34611;47.964;7.982;2023-12-14T23:38:11;97910.00;;;11.55;63.61
48800;BME280;34611;47.964;7.982;2023-12-14T23:45:14;97905.59;;;11.55;63.72
48800;BME280;34611;47.964;7.982;2023-12-14T23:52:14;97907.28;;;11.57;63.59
48800;BME280;34611;47.964;7.982;2023-12-14T23:59:14;97920.41;;;11.55;63.61
